Terminal Aerodrome Forecast
Issued by NWS Honolulu, HI

Home | Current Version | Previous Version | Text Only | Print | Product List | Glossary On
Versions: 1 2 3 4 5 6 7 8 9 10 11 12 13 14 15 16 17 18 19 20 21 22 23 24 25 26 27 28 29 30 31 32 33 34 35 36 37 38 39 40 41 42
000
FTPA31 PHFO 212300 RRA
TAFHNL
TAF
PHNL 212341Z 2200/2306 19007KT P6SM SCT045
     FM220300 32007KT P6SM VCSH FEW030 BKN060
     FM221800 02007KT P6SM -SHRA SCT020 OVC040
     FM230000 02013KT P6SM VCSH SCT020 BKN040 OVC070=

USA.gov is the U.S. government's official web portal to all federal, state and local government web resources and services.